Skip Navigation Links
NOAA logo - Click to go to the NOAA homepage
NOAA's National Weather Service
Alaska Aviation Weather Unit
  NWS logo - Click to go to the NWS homepage
Left Navbar Graphic     21 AKDT = 05 GMT

   
NOAA is celebrating 200 years of science, service, and stewardship. Visit the NOAA 200th celebration Web site to learn more.
USA.gov is the U.S. Government's official Web portal to all Federal, state and local government Web resources and services.
Facebook
NWS on Facebook

AAWU Home :: Display TAF Add Bookmark
TAF PASD 270447Z 2705/2724 16010KT P6SM OVC035
     FM271600 16010KT P6SM -SHRA OVC025
      AMD LTD TO CLD VIS AND WIND=
METAR PASD 262316Z 15008KT 10SM SCT019 BKN025 BKN035 06/03 A2956 RMK AO1
     WEA: NONE (KH)=

METAR PASD 262336Z 16010KT 10SM SCT019 BKN025 BKN035 07/03 A2956 RMK
 AO1
 WEA: NONE (KH)=

METAR PASD 262356Z 17009KT 10SM SCT021 BKN029 BKN035 07/02 A2957 RMK AO1
     WEA: NONE (KH) 10070 20040 400700040 52010=

METAR PASD 270016Z 16010KT 10SM SCT021 BKN029 BKN035 06/03 A2957 RMK AO1
     WEA: NONE (KH)=

METAR PASD 270036Z 18009KT 10SM SCT021 BKN029 BKN035 06/03 A2957 RMK AO1
     WEA: NONE (KH)=

METAR PASD 270056Z 20010KT 10SM SCT021 BKN033 BKN040 07/01 A2958 RMK AO1
     WEA: NONE (KH)=

METAR PASD 270116Z 20008KT 10SM SCT021 BKN033 BKN040 07/01 A2958 RMK AO1
     WEA: NONE (KH)=

METAR PASD 270136Z 19008KT 10SM SCT021 BKN033 BKN040 07/01 A2958 RMK AO1
     WEA: NONE (KH)=

METAR PASD 270156Z 20005KT 10SM SCT023 BKN031 BKN045 07/01 A2959 RMK
 AO1
 WEA: NONE (AE)=

METAR PASD 270216Z 20004KT 10SM SCT023 BKN031 BKN045 07/01 A2959 RMK AO1
     WEA: NONE (AE)=

METAR PASD 270236Z 17004KT 10SM SCT023 BKN031 BKN045 07/00 A2959 RMK
 AO1
 WEA: NONE (AE)=

METAR PASD 270256Z 19008KT 10SM SCT023 BKN031 BKN045 07/02 A2959 RMK AO1
     WEA: NONE LAST (AE) 52007=

METAR PASD 270316Z 17007KT 10SM SCT023 BKN031 BKN045 07/02 A2960 RMK AO1
     WEA: NONE LAST (AE)=

METAR PASD 270336Z 16009KT 10SM SCT023 BKN031 BKN045 06/03 A2960 RMK
 AO1
 WEA: NONE LAST (AE)=

PASD 270356Z 16010KT 10SM SCT023 BKN031 BKN045 06/03 A2961 RMK AO1
     WEA: NONE LAST (AE)=

METAR PASD 270416Z AUTO 17010KT 10SM OVC031 06/03 A2961 RMK AO1=

METAR PASD 270436Z AUTO 16009KT 10SM FEW026 OVC033 06/03 A2962 RMK
     AO1=

METAR PASD 270456Z AUTO 16011KT 10SM FEW027 BKN033 OVC039 06/02
 A2963 RMK AO1=


NOAA's National Weather Service
Alaska Aviation Weather Unit
6930 Sand Lake Road
Anchorage, AK 99502-1845
Disclaimer
Credits
Glossary
Privacy Policy
About Us
Career Opportunities
Contact AAWU Internet Services Site last modified: April, 17th 2012